Time;durP1;ratioP1;P1;durP2;ratioP2;P2;SDS_P1;SDS_P2;PMS_P1;PMS_P2;Temp;Humidity;BMP_temperature;BMP_pressure;BME280_temperature;BME280_humidity;BME280_pressure;Samples;Min_cycle;Max_cycle;Signal;HPM_P1;HPM_P2
2021/07/07 00:00:11;;;;;;;4.05;3.58;;;21.40;77.50;;;;;;5067272;28;20183;-72
2021/07/07 00:02:36;;;;;;;3.83;3.60;;;21.40;77.50;;;;;;5066813;28;20284;-72
2021/07/07 00:05:04;;;;;;;3.35;3.22;;;21.30;77.90;;;;;;5069151;28;20618;-72
2021/07/07 00:07:30;;;;;;;3.83;3.58;;;21.30;78.00;;;;;;5068925;28;20261;-71
2021/07/07 00:09:55;;;;;;;3.92;3.72;;;21.30;78.50;;;;;;5061625;28;20256;-71
2021/07/07 00:12:21;;;;;;;4.15;3.90;;;21.20;78.50;;;;;;5065218;28;20186;-72
2021/07/07 00:14:47;;;;;;;3.88;3.55;;;21.20;78.50;;;;;;5067783;28;20215;-72
2021/07/07 00:17:13;;;;;;;4.07;3.80;;;21.10;78.40;;;;;;5071609;28;20217;-72
2021/07/07 00:19:39;;;;;;;3.60;3.50;;;21.10;78.40;;;;;;5065688;28;20189;-72
2021/07/07 00:22:05;;;;;;;3.75;3.47;;;21.10;78.40;;;;;;5066846;28;20732;-72
2021/07/07 00:24:30;;;;;;;4.10;3.83;;;21.00;78.80;;;;;;5067324;28;20221;-72
2021/07/07 00:26:56;;;;;;;3.70;3.50;;;21.00;79.00;;;;;;5062088;28;20180;-72
2021/07/07 00:29:22;;;;;;;3.30;3.10;;;21.00;78.90;;;;;;5065525;28;20183;-71
2021/07/07 00:31:47;;;;;;;3.75;3.55;;;20.90;79.20;;;;;;5068168;28;20171;-71
2021/07/07 00:34:13;;;;;;;3.25;3.05;;;20.90;79.10;;;;;;5067562;28;20215;-72
2021/07/07 00:36:39;;;;;;;3.17;2.97;;;20.90;79.50;;;;;;5066245;28;20266;-71
2021/07/07 00:39:04;;;;;;;3.67;3.47;;;20.90;79.70;;;;;;5065105;28;20679;-72
2021/07/07 00:41:31;;;;;;;3.83;3.50;;;20.80;80.00;;;;;;5067574;28;20351;-72
2021/07/07 00:43:56;;;;;;;5.30;4.13;;;20.80;80.00;;;;;;5060996;28;20191;-71
2021/07/07 00:46:22;;;;;;;4.03;3.72;;;20.80;80.00;;;;;;5066657;28;20179;-72
2021/07/07 00:48:48;;;;;;;4.22;3.92;;;20.80;80.10;;;;;;5061945;28;20175;-71
2021/07/07 00:51:15;;;;;;;4.18;3.90;;;20.70;80.10;;;;;;5064908;28;20187;-71
2021/07/07 00:53:41;;;;;;;3.40;3.28;;;20.70;79.90;;;;;;5058783;28;20595;-72
2021/07/07 00:56:09;;;;;;;4.25;3.95;;;20.70;80.30;;;;;;5064562;28;20185;-71
2021/07/07 00:58:36;;;;;;;5.13;4.13;;;20.60;80.40;;;;;;5066006;28;20269;-71
2021/07/07 01:01:06;;;;;;;4.05;3.85;;;20.60;80.90;;;;;;5063781;28;20211;-71
2021/07/07 01:03:33;;;;;;;3.78;3.47;;;20.60;80.70;;;;;;5060058;28;20175;-71
2021/07/07 01:06:00;;;;;;;3.95;3.67;;;20.60;81.10;;;;;;5067587;28;20275;-73
2021/07/07 01:08:28;;;;;;;3.65;3.45;;;20.60;80.90;;;;;;5058088;28;20188;-72
2021/07/07 01:10:56;;;;;;;4.07;3.72;;;20.60;81.10;;;;;;5067320;28;20209;-71
2021/07/07 01:13:22;;;;;;;3.88;3.58;;;20.60;81.00;;;;;;5067838;28;20206;-72
2021/07/07 01:15:51;;;;;;;3.78;3.58;;;20.50;81.40;;;;;;5072109;28;20671;-72
2021/07/07 01:18:17;;;;;;;3.50;3.30;;;20.50;81.40;;;;;;5064512;28;20184;-72
2021/07/07 01:20:42;;;;;;;4.00;3.70;;;20.50;81.90;;;;;;5064901;28;20182;-73
2021/07/07 01:23:08;;;;;;;3.92;3.72;;;20.50;81.80;;;;;;5066676;28;20266;-72
2021/07/07 01:25:34;;;;;;;4.00;3.70;;;20.40;81.80;;;;;;5065590;28;20331;-72
2021/07/07 01:28:04;;;;;;;6.38;3.90;;;20.40;81.90;;;;;;5066740;28;20187;-72
2021/07/07 01:30:30;;;;;;;5.60;3.67;;;20.40;81.80;;;;;;5065157;28;20175;-72
2021/07/07 01:32:56;;;;;;;3.55;3.33;;;20.40;81.90;;;;;;5067232;28;20197;-72
2021/07/07 01:35:23;;;;;;;4.03;3.63;;;20.30;82.10;;;;;;5064626;28;20182;-72
2021/07/07 01:37:50;;;;;;;4.03;3.72;;;20.30;82.20;;;;;;5066845;28;20687;-72
2021/07/07 01:40:19;;;;;;;4.07;3.78;;;20.30;82.20;;;;;;5065332;28;20270;-72
2021/07/07 01:42:46;;;;;;;5.53;4.07;;;20.30;82.10;;;;;;5066656;28;20203;-71
2021/07/07 01:45:15;;;;;;;3.47;3.28;;;20.20;82.30;;;;;;5066052;28;20262;-72
2021/07/07 01:47:41;;;;;;;3.70;3.40;;;20.20;82.20;;;;;;5067082;28;20569;-72
2021/07/07 01:50:10;;;;;;;3.17;3.08;;;20.10;82.40;;;;;;5066028;28;20213;-72
2021/07/07 01:52:36;;;;;;;3.58;3.38;;;20.10;82.40;;;;;;5066114;28;20248;-72
2021/07/07 01:55:07;;;;;;;4.32;4.03;;;20.10;82.60;;;;;;5064036;28;20603;-72
2021/07/07 01:57:48;;;;;;;4.35;4.05;;;20.10;82.70;;;;;;5059432;28;20215;-72
2021/07/07 02:00:23;;;;;;;4.60;4.05;;;20.00;83.20;;;;;;5057347;28;20179;-72
2021/07/07 02:02:50;;;;;;;3.88;3.75;;;20.00;83.60;;;;;;5062625;28;20193;-72
2021/07/07 02:05:18;;;;;;;4.90;3.97;;;19.90;83.50;;;;;;5076268;28;20209;-72
2021/07/07 02:07:43;;;;;;;4.40;4.00;;;19.90;83.40;;;;;;5064703;28;20179;-72
2021/07/07 02:10:12;;;;;;;4.03;3.63;;;19.90;83.40;;;;;;5065524;28;20179;-72
2021/07/07 02:12:39;;;;;;;3.83;3.53;;;19.80;83.40;;;;;;5067004;28;21031;-72
2021/07/07 02:15:09;;;;;;;3.90;3.60;;;19.80;83.60;;;;;;5065683;28;20214;-72
2021/07/07 02:17:34;;;;;;;3.85;3.55;;;19.80;83.40;;;;;;5068275;28;20203;-73
2021/07/07 02:20:00;;;;;;;3.53;3.33;;;19.80;83.80;;;;;;5068564;28;20194;-72
2021/07/07 02:22:26;;;;;;;3.72;3.53;;;19.80;83.60;;;;;;5070586;28;20261;-72
2021/07/07 02:24:52;;;;;;;4.18;3.97;;;19.70;83.60;;;;;;5066662;28;20270;-71
2021/07/07 02:27:18;;;;;;;4.38;4.07;;;19.70;83.80;;;;;;5069912;28;20183;-72
2021/07/07 02:29:43;;;;;;;4.45;3.75;;;19.70;83.90;;;;;;5069652;28;20172;-71
2021/07/07 02:32:09;;;;;;;5.15;4.03;;;19.60;84.10;;;;;;5069393;28;20759;-72
2021/07/07 02:34:35;;;;;;;3.83;3.50;;;19.60;84.30;;;;;;5068103;28;20245;-72
2021/07/07 02:37:01;;;;;;;5.15;3.25;;;19.60;84.70;;;;;;5067476;28;20190;-72
2021/07/07 02:39:27;;;;;;;3.80;3.60;;;19.50;84.50;;;;;;5069442;28;20677;-71
2021/07/07 02:41:53;;;;;;;4.20;3.90;;;19.50;84.80;;;;;;5070744;28;20224;-72
2021/07/07 02:44:19;;;;;;;4.00;3.70;;;19.40;84.60;;;;;;5068430;28;20233;-72
2021/07/07 02:46:44;;;;;;;4.13;3.92;;;19.40;84.60;;;;;;5070192;28;20194;-72
2021/07/07 02:49:10;;;;;;;3.53;3.40;;;19.40;85.20;;;;;;5069393;28;20265;-70
2021/07/07 02:51:36;;;;;;;4.10;3.80;;;19.30;85.00;;;;;;5067219;28;20186;-72
2021/07/07 02:54:01;;;;;;;4.18;3.97;;;19.30;85.20;;;;;;5070615;28;20225;-71
2021/07/07 02:56:27;;;;;;;4.47;4.07;;;19.20;85.20;;;;;;5072669;28;20174;-72
2021/07/07 02:58:52;;;;;;;4.43;4.10;;;19.20;85.20;;;;;;5071590;28;20182;-72
2021/07/07 03:01:20;;;;;;;3.75;3.55;;;19.20;85.00;;;;;;5066788;28;20183;-71
2021/07/07 03:03:46;;;;;;;3.80;3.60;;;19.20;85.20;;;;;;5071757;28;20850;-72
2021/07/07 03:06:12;;;;;;;3.88;3.78;;;19.20;85.00;;;;;;5071945;28;20254;-71
2021/07/07 03:08:42;;;;;;;4.15;3.90;;;19.10;84.90;;;;;;5070068;28;20179;-72
2021/07/07 03:11:09;;;;;;;4.00;3.80;;;19.10;84.70;;;;;;5074523;28;20256;-72
2021/07/07 03:13:34;;;;;;;4.18;3.97;;;19.10;84.70;;;;;;5069810;28;20219;-72
2021/07/07 03:16:00;;;;;;;4.03;3.55;;;19.20;84.50;;;;;;5075884;28;20190;-72
2021/07/07 03:18:26;;;;;;;4.53;4.22;;;19.20;84.70;;;;;;5074475;28;20189;-72
2021/07/07 03:20:53;;;;;;;4.20;3.83;;;19.20;84.70;;;;;;5071260;28;20182;-72
2021/07/07 03:23:21;;;;;;;4.03;3.83;;;19.20;84.70;;;;;;5088499;28;20660;-72
2021/07/07 03:25:49;;;;;;;4.03;3.83;;;19.20;84.70;;;;;;5070436;28;20174;-72
2021/07/07 03:28:16;;;;;;;4.43;4.00;;;19.20;85.00;;;;;;5072773;28;20187;-71
2021/07/07 03:30:42;;;;;;;4.10;3.83;;;19.20;85.20;;;;;;5074017;28;20671;-72
2021/07/07 03:33:07;;;;;;;5.10;4.10;;;19.20;85.00;;;;;;5069938;28;20261;-71
2021/07/07 03:35:33;;;;;;;4.95;4.55;;;19.30;85.00;;;;;;5070361;28;20186;-72
2021/07/07 03:37:59;;;;;;;4.35;4.05;;;19.30;85.00;;;;;;5075292;28;20281;-72
2021/07/07 03:40:30;;;;;;;4.30;4.10;;;19.30;84.80;;;;;;5070765;28;20261;-72
2021/07/07 03:42:57;;;;;;;4.10;3.80;;;19.40;85.40;;;;;;5069654;28;20640;-71
2021/07/07 03:45:23;;;;;;;3.88;3.65;;;19.40;84.80;;;;;;5069768;28;20171;-71
2021/07/07 03:47:49;;;;;;;4.43;4.05;;;19.40;84.70;;;;;;5073253;28;20183;-71
2021/07/07 03:50:16;;;;;;;4.55;4.25;;;19.40;84.70;;;;;;5069567;28;20209;-72
2021/07/07 03:52:42;;;;;;;5.03;4.65;;;19.40;84.70;;;;;;5074539;28;20175;-71
2021/07/07 03:55:09;;;;;;;4.20;4.00;;;19.40;84.80;;;;;;5070851;28;20220;-72
2021/07/07 03:57:35;;;;;;;4.28;4.07;;;19.40;84.70;;;;;;5074834;28;20178;-72
2021/07/07 04:00:01;;;;;;;5.35;4.00;;;19.50;84.70;;;;;;5074235;28;20185;-72
2021/07/07 04:02:27;;;;;;;4.35;4.13;;;19.50;84.70;;;;;;5070305;28;20179;-72
2021/07/07 04:04:53;;;;;;;4.50;4.10;;;19.60;84.60;;;;;;5068493;28;20175;-72
2021/07/07 04:07:18;;;;;;;4.88;4.22;;;19.60;84.70;;;;;;5070866;28;20577;-72
2021/07/07 04:09:44;;;;;;;5.13;4.55;;;19.60;84.90;;;;;;5073728;28;20183;-72
2021/07/07 04:12:10;;;;;;;4.80;4.32;;;19.70;84.70;;;;;;5071271;28;20179;-72
2021/07/07 04:14:35;;;;;;;4.90;4.60;;;19.70;84.80;;;;;;5068723;28;20211;-72
2021/07/07 04:17:01;;;;;;;5.20;4.80;;;19.70;84.80;;;;;;5072289;28;20190;-74
2021/07/07 04:19:28;;;;;;;4.68;4.38;;;19.70;85.00;;;;;;5068067;28;20682;-74
2021/07/07 04:21:54;;;;;;;4.72;4.43;;;19.80;85.00;;;;;;5072648;28;20178;-74
2021/07/07 04:24:21;;;;;;;4.30;4.00;;;19.80;85.00;;;;;;5068981;28;20167;-74
2021/07/07 04:26:48;;;;;;;4.43;4.18;;;19.80;84.90;;;;;;5070571;28;20186;-70
2021/07/07 04:29:13;;;;;;;5.90;4.97;;;19.90;85.00;;;;;;5069717;28;20175;-70
2021/07/07 04:31:40;;;;;;;4.28;4.07;;;19.90;84.70;;;;;;5072834;28;20175;-70
2021/07/07 04:34:06;;;;;;;4.15;3.67;;;19.90;85.00;;;;;;5072486;28;20245;-74
2021/07/07 04:36:33;;;;;;;4.40;4.10;;;19.90;84.80;;;;;;5076249;28;20232;-74
2021/07/07 04:38:58;;;;;;;4.50;4.20;;;19.90;84.90;;;;;;5068726;28;20221;-73
2021/07/07 04:41:24;;;;;;;4.45;3.83;;;19.90;84.90;;;;;;5069137;28;20671;-74
2021/07/07 04:43:51;;;;;;;5.85;5.32;;;20.00;85.10;;;;;;5071776;28;20179;-74
2021/07/07 04:46:17;;;;;;;5.32;4.82;;;20.00;84.50;;;;;;5086981;28;20183;-73
2021/07/07 04:48:46;;;;;;;7.50;4.78;;;20.00;84.70;;;;;;5065289;28;20266;-73
2021/07/07 04:51:12;;;;;;;7.80;4.80;;;20.00;84.20;;;;;;5066629;28;20255;-73
2021/07/07 04:53:38;;;;;;;5.18;4.88;;;20.10;84.20;;;;;;5064114;28;20219;-74
2021/07/07 04:56:04;;;;;;;4.43;4.13;;;20.10;84.10;;;;;;5079417;28;20268;-73
2021/07/07 04:58:30;;;;;;;4.03;3.83;;;20.10;83.90;;;;;;5067295;28;20213;-73
2021/07/07 05:00:56;;;;;;;5.35;4.95;;;20.20;83.80;;;;;;5064689;28;20224;-72
2021/07/07 05:03:21;;;;;;;5.32;4.82;;;20.20;83.90;;;;;;5064613;28;20671;-73
2021/07/07 05:05:47;;;;;;;6.15;5.70;;;20.30;83.90;;;;;;5067429;28;20194;-73
2021/07/07 05:08:13;;;;;;;5.15;4.88;;;20.30;83.80;;;;;;5064144;28;20716;-72
2021/07/07 05:10:39;;;;;;;4.97;4.65;;;20.30;83.50;;;;;;5067564;28;20632;-72
2021/07/07 05:13:05;;;;;;;6.30;5.70;;;20.40;83.60;;;;;;5065956;28;20629;-72
2021/07/07 05:15:33;;;;;;;5.88;5.50;;;20.40;83.50;;;;;;5066094;28;20213;-73
2021/07/07 05:17:59;;;;;;;6.22;5.75;;;20.50;83.70;;;;;;5065907;28;20194;-73
2021/07/07 05:20:24;;;;;;;5.57;5.10;;;20.50;83.70;;;;;;5065777;28;20217;-73
2021/07/07 05:22:52;;;;;;;9.32;5.57;;;20.60;84.00;;;;;;5066900;28;20733;-78
2021/07/07 05:25:19;;;;;;;5.10;4.70;;;20.60;83.90;;;;;;5065969;28;20198;-75
2021/07/07 05:27:46;;;;;;;9.13;6.68;;;20.60;83.90;;;;;;5067150;28;20187;-75
2021/07/07 05:30:13;;;;;;;11.65;7.57;;;20.70;83.80;;;;;;5055833;28;20183;-76
2021/07/07 05:32:39;;;;;;;8.95;5.35;;;20.70;84.00;;;;;;5066891;28;20175;-74
2021/07/07 05:35:06;;;;;;;12.75;6.38;;;20.70;83.50;;;;;;5066847;28;20712;-76
2021/07/07 05:37:32;;;;;;;6.13;5.65;;;20.80;83.10;;;;;;5063190;28;20678;-71
2021/07/07 05:39:58;;;;;;;5.68;5.07;;;20.80;83.30;;;;;;5067617;28;20179;-77
2021/07/07 05:42:23;;;;;;;5.53;5.10;;;20.90;83.00;;;;;;5066579;28;20749;-72
2021/07/07 05:44:53;;;;;;;6.22;5.40;;;20.90;82.60;;;;;;5063911;28;20214;-72
2021/07/07 05:47:21;;;;;;;5.07;4.35;;;21.00;82.20;;;;;;5064258;28;20182;-73
2021/07/07 05:49:47;;;;;;;4.85;4.60;;;21.00;82.00;;;;;;5075497;28;20643;-71
2021/07/07 05:52:13;;;;;;;4.55;4.35;;;21.10;82.10;;;;;;5067804;28;20190;-72
2021/07/07 05:54:40;;;;;;;4.40;4.05;;;21.20;81.90;;;;;;5063539;28;20215;-73
2021/07/07 05:57:06;;;;;;;5.65;5.22;;;21.20;81.40;;;;;;5076025;28;20208;-73
2021/07/07 05:59:32;;;;;;;6.15;5.55;;;21.30;81.30;;;;;;5065074;28;20175;-74
2021/07/07 06:01:58;;;;;;;5.22;4.72;;;21.30;81.20;;;;;;5061970;28;20189;-76
2021/07/07 06:04:23;;;;;;;6.15;5.65;;;21.40;81.10;;;;;;5062776;28;20218;-73
2021/07/07 06:06:49;;;;;;;5.30;4.90;;;21.40;81.00;;;;;;5070095;28;20570;-73
2021/07/07 06:09:15;;;;;;;5.13;4.72;;;21.50;80.90;;;;;;5064679;28;20190;-74
2021/07/07 06:11:40;;;;;;;5.90;5.45;;;21.50;80.60;;;;;;5062716;28;20271;-75
2021/07/07 06:14:06;;;;;;;4.93;4.47;;;21.60;80.60;;;;;;5067285;28;20292;-75
2021/07/07 06:16:32;;;;;;;4.85;4.53;;;21.70;80.50;;;;;;5061831;28;20201;-75
2021/07/07 06:18:58;;;;;;;5.43;4.72;;;21.70;80.40;;;;;;5058665;28;20293;-75
2021/07/07 06:21:23;;;;;;;5.60;4.75;;;21.80;80.30;;;;;;5061592;28;20186;-74
2021/07/07 06:23:49;;;;;;;5.80;5.38;;;21.90;80.20;;;;;;5068465;28;20193;-75
2021/07/07 06:26:14;;;;;;;4.63;4.20;;;21.90;80.20;;;;;;5064060;28;20215;-75
2021/07/07 06:28:40;;;;;;;5.65;5.15;;;22.00;80.20;;;;;;5066143;28;20220;-75
2021/07/07 06:31:06;;;;;;;6.00;5.50;;;22.10;80.20;;;;;;5081035;28;20248;-75
2021/07/07 06:33:32;;;;;;;5.63;5.13;;;22.20;79.70;;;;;;5064025;28;20215;-73
2021/07/07 06:35:57;;;;;;;5.07;4.65;;;22.20;79.60;;;;;;5061880;28;20190;-75
2021/07/07 06:38:23;;;;;;;5.35;4.95;;;22.30;79.80;;;;;;5066975;28;20252;-78
2021/07/07 06:40:49;;;;;;;6.38;5.78;;;22.40;79.60;;;;;;5061175;28;20735;-76
2021/07/07 06:43:19;;;;;;;4.68;4.28;;;22.50;79.50;;;;;;5061196;28;20241;-76
2021/07/07 06:45:45;;;;;;;6.43;5.15;;;22.60;79.20;;;;;;5062892;28;20183;-77
2021/07/07 06:48:11;;;;;;;7.80;4.80;;;22.60;79.40;;;;;;5064084;28;20812;-76
2021/07/07 06:50:39;;;;;;;6.50;5.47;;;22.70;79.00;;;;;;5061294;28;20664;-77
2021/07/07 06:53:05;;;;;;;5.45;4.88;;;22.80;78.70;;;;;;5063191;28;20611;-75
2021/07/07 06:55:31;;;;;;;5.47;4.93;;;22.90;78.80;;;;;;5061768;28;20203;-75
2021/07/07 06:57:57;;;;;;;4.93;4.57;;;22.90;78.20;;;;;;5066068;28;20171;-75
2021/07/07 07:00:24;;;;;;;4.50;4.30;;;23.00;78.30;;;;;;5064152;28;20261;-75
2021/07/07 07:02:50;;;;;;;5.20;4.80;;;23.10;78.20;;;;;;5064396;28;20179;-76
2021/07/07 07:05:18;;;;;;;5.38;4.90;;;23.20;78.10;;;;;;5066142;28;20223;-75
2021/07/07 07:07:45;;;;;;;6.50;4.50;;;23.30;77.90;;;;;;5067829;28;20217;-75
2021/07/07 07:10:12;;;;;;;5.05;4.53;;;23.30;77.90;;;;;;5064529;28;20179;-76
2021/07/07 07:12:40;;;;;;;5.20;4.70;;;23.40;77.80;;;;;;5066748;28;20182;-76
2021/07/07 07:15:09;;;;;;;4.85;4.40;;;23.50;77.40;;;;;;5082760;28;20214;-76
2021/07/07 07:17:35;;;;;;;5.45;4.93;;;23.60;77.40;;;;;;5068660;28;20186;-76
2021/07/07 07:20:02;;;;;;;5.45;4.78;;;23.60;77.20;;;;;;5066292;28;20692;-76
2021/07/07 07:22:47;;;;;;;4.93;4.63;;;23.70;77.20;;;;;;5068019;28;20721;-76
2021/07/07 07:25:13;;;;;;;5.00;4.57;;;23.80;77.10;;;;;;5073758;28;20182;-75
2021/07/07 07:27:39;;;;;;;5.70;5.22;;;23.90;77.10;;;;;;5059811;28;20262;-76
2021/07/07 07:30:06;;;;;;;5.35;5.05;;;23.90;76.70;;;;;;5070025;28;20210;-76
2021/07/07 07:32:32;;;;;;;9.15;4.10;;;24.00;76.70;;;;;;5062292;28;20235;-76
2021/07/07 07:34:58;;;;;;;5.22;4.60;;;24.10;76.60;;;;;;5070628;28;20244;-76
2021/07/07 07:37:26;;;;;;;5.22;4.80;;;24.20;76.50;;;;;;5054405;28;20215;-76
2021/07/07 07:39:55;;;;;;;4.65;4.35;;;24.20;76.10;;;;;;5060933;28;20551;-76
2021/07/07 07:42:21;;;;;;;5.22;4.88;;;24.30;76.30;;;;;;5074393;28;20203;-76
2021/07/07 07:44:47;;;;;;;4.88;4.32;;;24.40;75.80;;;;;;5062278;28;20190;-76
2021/07/07 07:47:15;;;;;;;5.55;4.97;;;24.50;76.00;;;;;;5054055;28;20265;-74
2021/07/07 07:49:41;;;;;;;5.03;4.72;;;24.60;75.40;;;;;;5059858;28;20522;-75
2021/07/07 07:52:07;;;;;;;5.25;4.85;;;24.70;75.20;;;;;;5061128;28;20182;-75
2021/07/07 07:54:33;;;;;;;5.25;4.75;;;24.70;74.40;;;;;;5063025;28;20215;-75
2021/07/07 07:57:00;;;;;;;4.43;4.13;;;24.80;73.70;;;;;;5066351;28;20228;-75
2021/07/07 07:59:27;;;;;;;5.07;4.55;;;24.90;74.00;;;;;;5067071;28;20179;-75
2021/07/07 08:01:53;;;;;;;4.68;4.38;;;25.00;73.90;;;;;;5059842;28;20254;-75
2021/07/07 08:04:34;;;;;;;4.88;4.35;;;25.10;73.30;;;;;;5066869;28;20182;-75
2021/07/07 08:06:59;;;;;;;4.50;4.30;;;25.20;72.40;;;;;;5059080;28;20211;-75
2021/07/07 08:09:25;;;;;;;4.57;4.38;;;25.20;72.40;;;;;;5062540;28;20203;-75
2021/07/07 08:11:51;;;;;;;4.10;3.90;;;25.40;72.00;;;;;;5058755;28;20186;-75
2021/07/07 08:14:17;;;;;;;4.53;4.22;;;25.40;72.20;;;;;;5062027;28;20261;-75
2021/07/07 08:16:43;;;;;;;3.85;3.50;;;25.50;72.10;;;;;;5058217;28;20655;-75
2021/07/07 08:19:08;;;;;;;4.43;4.20;;;25.60;71.40;;;;;;5064363;28;20233;-75
2021/07/07 08:21:34;;;;;;;4.13;3.88;;;25.70;71.40;;;;;;5066848;28;20179;-75
2021/07/07 08:24:03;;;;;;;4.13;3.92;;;25.80;71.50;;;;;;5066513;28;20674;-74
2021/07/07 08:26:29;;;;;;;4.68;4.35;;;25.90;71.40;;;;;;5061130;28;20248;-75
2021/07/07 08:28:58;;;;;;;4.13;3.85;;;25.90;70.00;;;;;;5058952;28;20191;-75
2021/07/07 08:31:24;;;;;;;4.80;4.38;;;26.00;69.80;;;;;;5057026;28;20184;-75
2021/07/07 08:33:50;;;;;;;3.70;3.53;;;26.10;69.40;;;;;;5066680;28;20210;-75
2021/07/07 08:36:20;;;;;;;6.05;4.00;;;26.20;69.90;;;;;;5060802;28;20689;-75
2021/07/07 08:38:45;;;;;;;3.90;3.80;;;26.20;69.70;;;;;;5054937;28;20254;-75
2021/07/07 08:41:12;;;;;;;5.22;3.40;;;26.30;68.60;;;;;;5056663;28;20664;-75
2021/07/07 08:43:37;;;;;;;3.78;3.47;;;26.40;68.50;;;;;;5061441;28;20465;-76
2021/07/07 08:46:03;;;;;;;3.90;3.50;;;26.50;69.10;;;;;;5056761;28;20454;-75
2021/07/07 08:48:29;;;;;;;3.88;3.58;;;26.50;68.60;;;;;;5054614;28;20286;-75
2021/07/07 08:50:59;;;;;;;4.00;3.70;;;26.60;68.70;;;;;;5056492;28;20187;-75
2021/07/07 08:53:26;;;;;;;4.10;4.00;;;26.70;68.60;;;;;;5065064;28;20182;-75
2021/07/07 08:55:53;;;;;;;4.00;3.88;;;26.80;67.70;;;;;;5065017;28;20272;-75
2021/07/07 08:58:19;;;;;;;4.07;3.88;;;26.80;67.50;;;;;;5066200;28;20190;-75
2021/07/07 09:00:44;;;;;;;3.13;3.03;;;26.90;66.30;;;;;;5067587;28;20266;-75
2021/07/07 09:03:14;;;;;;;3.55;3.45;;;27.00;67.40;;;;;;5067584;28;20265;-75
2021/07/07 09:05:58;;;;;;;3.08;2.97;;;27.10;67.50;;;;;;5067849;28;20178;-75
2021/07/07 09:08:28;;;;;;;3.50;3.20;;;27.20;65.90;;;;;;5060163;28;20175;-75
2021/07/07 09:10:57;;;;;;;4.30;3.92;;;27.30;66.50;;;;;;5062535;28;20249;-75
2021/07/07 09:13:24;;;;;;;3.60;3.22;;;27.30;65.50;;;;;;5066606;28;20183;-75
2021/07/07 09:15:53;;;;;;;3.30;3.20;;;27.40;66.60;;;;;;5067493;28;20179;-75
2021/07/07 09:18:33;;;;;;;3.67;3.55;;;27.50;66.70;;;;;;5067262;28;20182;-75
2021/07/07 09:20:59;;;;;;;3.20;3.00;;;27.60;66.00;;;;;;5067400;28;20674;-75
2021/07/07 09:23:29;;;;;;;3.65;3.20;;;27.70;66.70;;;;;;5067077;28;20266;-76
2021/07/07 09:26:01;;;;;;;3.72;3.50;;;27.90;66.70;;;;;;5056752;28;20190;-75
2021/07/07 09:28:36;;;;;;;3.25;3.15;;;28.00;64.50;;;;;;5067385;28;20206;-74
2021/07/07 09:31:05;;;;;;;3.20;3.10;;;28.00;63.30;;;;;;5067578;28;20261;-75
2021/07/07 09:33:42;;;;;;;3.42;3.20;;;28.10;65.00;;;;;;5065293;28;20785;-75
2021/07/07 09:36:23;;;;;;;3.08;2.97;;;28.20;65.10;;;;;;5060610;28;20202;-75
2021/07/07 09:38:50;;;;;;;3.10;3.00;;;28.30;64.20;;;;;;5056127;28;20205;-75
2021/07/07 09:41:17;;;;;;;3.60;3.25;;;28.50;64.90;;;;;;5066982;28;20191;-75
2021/07/07 09:43:54;;;;;;;3.83;3.55;;;28.60;64.10;;;;;;5062158;28;20187;-75
2021/07/07 09:46:21;;;;;;;3.17;3.08;;;28.70;63.50;;;;;;5055983;28;20232;-75
2021/07/07 09:48:47;;;;;;;3.75;3.45;;;28.70;64.50;;;;;;5051335;28;20179;-75
2021/07/07 09:51:13;;;;;;;3.67;3.47;;;28.80;63.30;;;;;;5057225;28;20824;-75
2021/07/07 09:53:39;;;;;;;3.30;3.15;;;28.90;62.90;;;;;;5063027;28;20242;-75
2021/07/07 09:56:05;;;;;;;4.07;3.75;;;29.00;63.20;;;;;;5064100;28;20724;-75
2021/07/07 09:58:31;;;;;;;5.07;3.17;;;29.10;63.10;;;;;;5065575;28;20680;-75
2021/07/07 10:00:57;;;;;;;3.03;2.88;;;29.20;63.10;;;;;;5063888;28;20183;-76
2021/07/07 10:03:23;;;;;;;3.28;3.08;;;29.30;60.80;;;;;;5057316;28;20679;-75
2021/07/07 10:05:51;;;;;;;3.25;3.05;;;29.40;62.80;;;;;;5084817;28;20182;-75
2021/07/07 10:08:19;;;;;;;3.30;3.05;;;29.60;62.20;;;;;;5057813;28;20258;-75
2021/07/07 10:10:46;;;;;;;3.67;3.55;;;29.80;62.30;;;;;;5059923;28;20191;-75
2021/07/07 10:13:13;;;;;;;4.85;3.50;;;30.00;61.70;;;;;;5065564;28;20200;-75
2021/07/07 10:15:39;;;;;;;4.07;3.88;;;30.10;61.30;;;;;;5065813;28;20186;-77
2021/07/07 10:18:07;;;;;;;3.53;3.42;;;30.40;61.00;;;;;;5070302;28;20194;-75
2021/07/07 10:20:34;;;;;;;3.90;3.60;;;30.60;61.30;;;;;;5065282;28;20190;-75
2021/07/07 10:23:02;;;;;;;3.65;3.55;;;30.90;59.00;;;;;;5065401;28;20183;-74
2021/07/07 10:25:30;;;;;;;3.67;3.47;;;31.20;59.30;;;;;;5067915;28;20655;-75
2021/07/07 10:28:00;;;;;;;3.40;3.20;;;31.60;59.80;;;;;;5060952;28;20577;-75
2021/07/07 10:30:54;;;;;;;4.85;3.92;;;32.00;58.30;;;;;;5060718;28;20191;-75
2021/07/07 10:33:21;;;;;;;3.80;3.60;;;32.40;56.60;;;;;;5082776;28;20202;-75
2021/07/07 10:35:48;;;;;;;3.40;3.30;;;32.70;56.10;;;;;;5060393;28;20183;-76
2021/07/07 10:38:15;;;;;;;4.03;3.88;;;33.00;55.60;;;;;;5075273;28;20182;-76
2021/07/07 10:40:47;;;;;;;3.83;3.63;;;33.40;56.90;;;;;;5069803;28;20689;-76
2021/07/07 10:43:46;;;;;;;4.18;3.80;;;33.80;56.30;;;;;;5067389;28;20193;-76
2021/07/07 10:46:30;;;;;;;3.72;3.60;;;34.20;56.00;;;;;;5042666;28;20318;-76
2021/07/07 10:49:26;;;;;;;3.58;3.35;;;34.50;54.30;;;;;;5046357;28;20206;-76
2021/07/07 10:51:54;;;;;;;3.45;3.35;;;34.80;53.10;;;;;;5037167;28;20657;-77
2021/07/07 10:54:20;;;;;;;3.67;3.58;;;35.10;53.70;;;;;;5036776;28;20257;-76
2021/07/07 10:56:48;;;;;;;4.30;3.90;;;35.50;53.20;;;;;;5045573;28;20187;-77
2021/07/07 10:59:31;;;;;;;3.47;3.38;;;36.00;54.10;;;;;;5045655;28;20284;-77
2021/07/07 11:02:06;;;;;;;3.70;3.50;;;36.80;52.50;;;;;;5027777;28;20668;-76
2021/07/07 11:05:04;;;;;;;3.90;3.80;;;37.50;52.10;;;;;;5025953;28;20209;-77
2021/07/07 11:07:38;;;;;;;3.92;3.78;;;38.40;50.00;;;;;;5000698;28;20192;-74
2021/07/07 11:10:12;;;;;;;4.13;3.88;;;38.90;49.80;;;;;;5001767;28;20196;-76
2021/07/07 11:12:41;;;;;;;3.55;3.45;;;39.30;49.30;;;;;;5001654;28;20322;-76
2021/07/07 11:15:11;;;;;;;3.50;3.50;;;39.90;48.90;;;;;;5005883;28;20216;-76
2021/07/07 11:17:44;;;;;;;3.30;3.20;;;40.30;49.50;;;;;;5000975;28;20588;-77
2021/07/07 11:20:19;;;;;;;2.88;2.78;;;40.50;47.70;;;;;;5000893;28;20670;-76
2021/07/07 11:22:47;;;;;;;2.90;2.80;;;40.90;47.50;;;;;;5012148;28;20247;-76
2021/07/07 11:25:15;;;;;;;3.38;3.28;;;41.40;46.80;;;;;;5008512;28;20832;-76
2021/07/07 11:27:42;;;;;;;8.90;3.50;;;41.90;47.60;;;;;;5025522;28;20207;-76
2021/07/07 11:30:12;;;;;;;3.58;3.28;;;42.50;46.50;;;;;;5025456;28;20223;-76
2021/07/07 11:32:46;;;;;;;3.90;3.80;;;42.90;44.50;;;;;;5025749;28;20665;-77
2021/07/07 11:35:17;;;;;;;3.35;3.25;;;43.10;47.30;;;;;;5022702;28;20253;-74
2021/07/07 11:37:43;;;;;;;3.10;3.00;;;43.20;46.00;;;;;;5025460;28;20291;-74
2021/07/07 11:40:17;;;;;;;3.72;3.60;;;43.30;47.80;;;;;;5025500;28;20192;-75
2021/07/07 11:42:56;;;;;;;3.75;3.65;;;43.40;45.60;;;;;;5040292;28;20216;-75
2021/07/07 11:45:28;;;;;;;3.28;3.10;;;43.40;43.80;;;;;;5057759;28;20630;-76
2021/07/07 11:48:03;;;;;;;3.03;3.03;;;43.30;45.90;;;;;;5067073;28;20287;-76
2021/07/07 11:50:29;;;;;;;3.00;3.00;;;43.00;43.70;;;;;;5067659;28;20623;-76
2021/07/07 11:52:57;;;;;;;3.30;3.20;;;42.70;45.00;;;;;;5064915;28;20186;-76
2021/07/07 11:55:52;;;;;;;4.15;3.78;;;42.60;44.20;;;;;;5063104;28;20230;-76
2021/07/07 11:58:22;;;;;;;3.85;3.75;;;42.60;44.90;;;;;;5066022;28;20561;-76
2021/07/07 12:00:49;;;;;;;3.45;3.35;;;42.60;46.10;;;;;;5067877;28;20190;-76
2021/07/07 12:03:19;;;;;;;3.25;3.25;;;42.80;44.50;;;;;;5058902;28;20249;-75
2021/07/07 12:06:01;;;;;;;3.70;3.60;;;42.60;45.30;;;;;;5066432;28;20190;-75
2021/07/07 12:08:30;;;;;;;4.00;3.67;;;42.60;46.70;;;;;;5060657;28;20532;-75
2021/07/07 12:11:17;;;;;;;4.05;3.72;;;42.70;48.50;;;;;;5067673;28;20696;-75
2021/07/07 12:13:47;;;;;;;3.58;3.45;;;43.10;45.40;;;;;;5067296;28;20285;-75
2021/07/07 12:16:30;;;;;;;4.50;3.60;;;43.30;45.00;;;;;;5067166;28;20186;-75
2021/07/07 12:19:04;;;;;;;4.53;3.58;;;43.30;45.30;;;;;;5082182;28;20187;-75
2021/07/07 12:21:32;;;;;;;3.63;3.53;;;43.10;47.10;;;;;;5067176;28;20251;-75
2021/07/07 12:24:01;;;;;;;3.80;3.60;;;43.20;44.60;;;;;;5065077;28;20548;-75
2021/07/07 12:26:29;;;;;;;3.47;3.47;;;43.20;44.80;;;;;;5067131;28;20740;-75
2021/07/07 12:28:59;;;;;;;3.63;3.33;;;43.40;44.90;;;;;;5066696;28;20186;-75
2021/07/07 12:31:27;;;;;;;3.70;3.50;;;43.90;46.10;;;;;;5065268;28;20597;-75
2021/07/07 12:33:54;;;;;;;3.40;3.30;;;44.40;44.30;;;;;;5065226;28;20214;-75
2021/07/07 12:36:24;;;;;;;3.90;3.80;;;45.00;45.00;;;;;;5062980;28;20190;-74
2021/07/07 12:38:50;;;;;;;3.17;3.17;;;45.50;42.40;;;;;;5056727;28;20179;-75
2021/07/07 12:41:16;;;;;;;3.13;3.03;;;46.00;43.50;;;;;;5060005;28;20858;-75
2021/07/07 12:44:07;;;;;;;3.05;2.95;;;46.40;42.30;;;;;;5062705;28;20191;-75
2021/07/07 12:46:33;;;;;;;3.65;3.55;;;46.80;42.00;;;;;;5071870;28;20186;-75
2021/07/07 12:48:59;;;;;;;3.53;3.05;;;46.90;41.30;;;;;;5068499;28;20295;-75
2021/07/07 12:51:27;;;;;;;3.10;3.10;;;46.40;42.80;;;;;;5062757;28;20278;-75